Time;durP1;ratioP1;P1;durP2;ratioP2;P2;SDS_P1;SDS_P2;PMS_P1;PMS_P2;Temp;Humidity;BMP_temperature;BMP_pressure;BME280_temperature;BME280_humidity;BME280_pressure;Samples;Min_cycle;Max_cycle;Signal;HPM_P1;HPM_P2
2022/03/31 00:00:25;;;;;;;75.45;62.63;;;;;;;9.30;100.00;99997.88;4998057;28;20053;-82
2022/03/31 00:02:51;;;;;;;77.75;60.33;;;;;;;9.55;100.00;99987.28;5012326;28;20076;-83
2022/03/31 00:05:18;;;;;;;77.18;59.00;;;;;;;9.29;100.00;99990.94;5010372;28;20050;-84
2022/03/31 00:07:49;;;;;;;77.95;65.97;;;;;;;9.32;100.00;99987.84;5007555;28;20465;-83
2022/03/31 00:10:20;;;;;;;77.80;67.45;;;;;;;9.16;100.00;99989.19;5005054;28;20050;-83
2022/03/31 00:12:47;;;;;;;81.50;72.90;;;;;;;9.28;100.00;99984.81;5004180;28;20413;-83
2022/03/31 00:15:14;;;;;;;87.60;66.50;;;;;;;9.37;100.00;99975.56;5010007;28;20053;-82
2022/03/31 00:17:43;;;;;;;103.05;71.07;;;;;;;9.40;100.00;99974.34;5002553;28;20061;-82
2022/03/31 00:20:11;;;;;;;104.00;83.15;;;;;;;9.45;100.00;99971.06;5011613;28;20493;-82
2022/03/31 00:22:39;;;;;;;343.33;122.20;;;;;;;9.61;100.00;99973.16;5001089;28;20486;-82
2022/03/31 00:25:07;;;;;;;183.60;84.43;;;;;;;9.51;100.00;99971.00;5006274;28;20050;-83
2022/03/31 00:27:34;;;;;;;93.50;65.90;;;;;;;9.23;100.00;99971.44;5008205;28;20046;-82
2022/03/31 00:30:01;;;;;;;124.13;78.65;;;;;;;9.10;100.00;99972.31;5007863;28;20534;-83
2022/03/31 00:32:28;;;;;;;83.22;60.15;;;;;;;8.90;100.00;99966.34;5008296;28;20054;-84
2022/03/31 00:34:56;;;;;;;77.68;61.60;;;;;;;9.15;100.00;99977.78;5002555;28;20046;-83
2022/03/31 00:37:23;;;;;;;149.05;78.78;;;;;;;9.38;100.00;99976.41;5005423;28;20058;-83
2022/03/31 00:39:50;;;;;;;180.15;85.28;;;;;;;9.51;100.00;99956.94;5006021;28;20045;-84
2022/03/31 00:42:17;;;;;;;216.82;96.65;;;;;;;9.49;100.00;99961.63;5001077;28;20105;-83
2022/03/31 00:44:45;;;;;;;92.85;73.55;;;;;;;9.33;100.00;99966.44;5012121;28;20050;-83
2022/03/31 00:47:12;;;;;;;103.32;69.22;;;;;;;9.06;100.00;99962.38;5012567;28;20398;-82
2022/03/31 00:49:38;;;;;;;85.25;61.00;;;;;;;9.11;100.00;99965.19;5009448;28;20054;-82
2022/03/31 00:52:07;;;;;;;82.72;58.67;;;;;;;9.09;100.00;99964.59;5007603;28;20074;-83
2022/03/31 00:54:35;;;;;;;83.93;62.72;;;;;;;9.02;100.00;99954.03;5008963;28;20037;-83
2022/03/31 00:57:04;;;;;;;82.43;69.75;;;;;;;9.01;100.00;99955.03;5000980;28;20049;-83
2022/03/31 00:59:32;;;;;;;78.72;64.22;;;;;;;8.95;100.00;99946.13;5011602;28;20059;-84
2022/03/31 01:01:59;;;;;;;78.38;61.08;;;;;;;9.08;100.00;99947.88;4995975;28;20128;-84
2022/03/31 01:04:28;;;;;;;74.68;63.17;;;;;;;9.14;100.00;99947.03;4984393;28;20146;-82
2022/03/31 01:06:55;;;;;;;64.35;56.75;;;;;;;8.98;100.00;99944.88;4991760;28;20507;-82
2022/03/31 01:09:24;;;;;;;78.65;62.50;;;;;;;9.05;100.00;99944.84;4977968;28;20057;-85
2022/03/31 01:11:51;;;;;;;74.30;65.13;;;;;;;9.06;100.00;99949.94;4984605;28;20058;-84
2022/03/31 01:14:20;;;;;;;128.57;77.28;;;;;;;9.08;100.00;99942.59;4992589;28;20061;-85
2022/03/31 01:16:46;;;;;;;107.18;70.22;;;;;;;9.04;100.00;99940.56;4988392;28;20046;-84
2022/03/31 01:19:13;;;;;;;132.10;74.75;;;;;;;9.06;100.00;99941.97;4983337;28;20098;-83
2022/03/31 01:21:41;;;;;;;142.23;80.15;;;;;;;9.09;100.00;99935.44;4992709;28;20081;-84
2022/03/31 01:24:12;;;;;;;188.52;94.53;;;;;;;8.83;100.00;99942.53;4984925;28;20047;-83
2022/03/31 01:26:39;;;;;;;176.80;94.07;;;;;;;8.49;100.00;99939.25;4989513;28;20046;-84
2022/03/31 01:29:07;;;;;;;164.00;79.70;;;;;;;8.63;100.00;99929.41;4989849;28;20560;-83
2022/03/31 01:31:35;;;;;;;144.48;83.43;;;;;;;8.59;100.00;99935.34;4988231;28;20047;-83
2022/03/31 01:34:02;;;;;;;107.80;71.05;;;;;;;8.61;100.00;99934.09;4981057;28;20081;-83
2022/03/31 01:36:28;;;;;;;212.80;95.78;;;;;;;8.63;100.00;99934.72;4983938;28;20050;-82
2022/03/31 01:38:56;;;;;;;154.82;81.15;;;;;;;8.48;100.00;99936.81;4983277;28;20046;-83
2022/03/31 01:41:24;;;;;;;286.10;108.93;;;;;;;8.46;100.00;99929.09;4986739;28;20053;-82
2022/03/31 01:43:51;;;;;;;264.17;100.68;;;;;;;8.65;100.00;99930.03;4987646;28;20053;-83
2022/03/31 01:46:18;;;;;;;291.10;109.13;;;;;;;8.58;100.00;99926.59;4990072;28;20047;-83
2022/03/31 01:48:45;;;;;;;277.90;114.88;;;;;;;8.49;100.00;99925.22;4981595;28;20042;-83
2022/03/31 01:51:12;;;;;;;225.30;100.35;;;;;;;8.37;100.00;99914.44;4995873;28;20056;-83
2022/03/31 01:53:40;;;;;;;168.63;81.47;;;;;;;8.57;100.00;99914.38;4988509;28;20498;-82
2022/03/31 01:56:07;;;;;;;91.80;59.30;;;;;;;8.29;100.00;99924.44;4987945;28;20566;-83
2022/03/31 01:58:36;;;;;;;101.35;58.72;;;;;;;8.47;100.00;99914.84;4986698;28;20086;-83
2022/03/31 02:01:04;;;;;;;167.60;75.88;;;;;;;8.18;100.00;99908.22;4983654;28;20064;-84
2022/03/31 02:03:31;;;;;;;120.65;66.53;;;;;;;7.58;100.00;99905.75;5004115;28;20423;-83
2022/03/31 02:05:58;;;;;;;128.02;75.68;;;;;;;7.99;100.00;99911.75;5002022;28;20053;-83
2022/03/31 02:08:25;;;;;;;166.68;86.43;;;;;;;8.04;100.00;99909.28;5004120;28;20051;-82
2022/03/31 02:10:52;;;;;;;137.35;77.25;;;;;;;7.99;100.00;99903.84;5000092;28;20081;-84
2022/03/31 02:13:19;;;;;;;113.65;64.47;;;;;;;8.01;100.00;99913.16;5009476;28;20133;-83
2022/03/31 02:15:47;;;;;;;98.07;68.30;;;;;;;8.16;100.00;99917.38;5011209;28;20054;-84
2022/03/31 02:18:14;;;;;;;69.97;53.05;;;;;;;8.20;100.00;99919.41;5001706;28;20104;-83
2022/03/31 02:20:41;;;;;;;88.75;56.78;;;;;;;8.09;100.00;99916.59;5007199;28;20604;-83
2022/03/31 02:23:09;;;;;;;95.80;64.25;;;;;;;8.09;100.00;99917.41;4999926;28;20088;-83
2022/03/31 02:25:36;;;;;;;103.85;67.18;;;;;;;8.03;100.00;99932.28;5001371;28;20082;-83
2022/03/31 02:28:03;;;;;;;166.63;78.68;;;;;;;8.03;100.00;99921.69;5005624;28;20046;-83
2022/03/31 02:30:30;;;;;;;160.68;83.45;;;;;;;7.99;100.00;99925.78;4996929;28;20052;-83
2022/03/31 02:33:00;;;;;;;297.30;114.75;;;;;;;8.13;100.00;99915.16;5004395;28;20054;-82
2022/03/31 02:35:28;;;;;;;224.07;97.80;;;;;;;7.91;100.00;99925.19;5009558;28;20050;-83
2022/03/31 02:37:54;;;;;;;192.70;83.45;;;;;;;8.05;100.00;99913.56;5005476;28;20056;-82
2022/03/31 02:40:22;;;;;;;201.07;80.82;;;;;;;8.13;100.00;99908.03;5004250;28;20142;-83
2022/03/31 02:42:49;;;;;;;186.10;82.90;;;;;;;8.08;100.00;99923.72;5007288;28;20062;-83
2022/03/31 02:45:16;;;;;;;154.05;76.30;;;;;;;8.31;100.00;99927.72;5016336;28;20108;-83
2022/03/31 02:47:45;;;;;;;143.18;76.28;;;;;;;8.26;100.00;99934.44;5011575;28;20046;-84
2022/03/31 02:50:14;;;;;;;149.88;74.57;;;;;;;8.46;100.00;99923.78;5006595;28;20141;-84
2022/03/31 02:55:25;;;;;;;142.45;77.20;;;;;;;8.49;100.00;99925.22;5005766;28;20160;-83
2022/03/31 02:57:52;;;;;;;163.10;80.13;;;;;;;8.48;100.00;99913.81;5013614;28;20053;-83
2022/03/31 03:00:20;;;;;;;137.95;76.07;;;;;;;8.71;100.00;99913.28;4999744;28;20046;-83
2022/03/31 03:02:47;;;;;;;94.82;63.40;;;;;;;8.89;100.00;99911.75;5007873;28;20127;-83
2022/03/31 03:05:16;;;;;;;78.22;57.13;;;;;;;8.98;100.00;99907.00;5001675;28;20141;-83
2022/03/31 03:07:43;;;;;;;61.80;55.78;;;;;;;9.28;100.00;99900.03;5009029;28;20053;-83
2022/03/31 03:10:10;;;;;;;51.65;46.83;;;;;;;9.48;100.00;99888.44;5009789;28;20100;-83
2022/03/31 03:12:37;;;;;;;49.42;44.92;;;;;;;9.76;100.00;99891.41;5009695;28;20057;-83
2022/03/31 03:15:05;;;;;;;48.72;44.60;;;;;;;10.00;100.00;99894.22;5010026;28;20116;-83
2022/03/31 03:17:32;;;;;;;54.15;48.33;;;;;;;9.71;100.00;99885.13;5009850;28;20053;-83
2022/03/31 03:19:59;;;;;;;45.25;40.20;;;;;;;9.44;100.00;99889.91;5002340;28;20487;-83
2022/03/31 03:22:27;;;;;;;47.42;43.47;;;;;;;9.74;100.00;99887.34;5006802;28;20506;-84
2022/03/31 03:24:54;;;;;;;48.78;43.95;;;;;;;9.68;100.00;99893.53;5013564;28;20119;-84
2022/03/31 03:27:21;;;;;;;47.38;43.17;;;;;;;9.65;100.00;99884.19;5012036;28;20108;-83
2022/03/31 03:29:47;;;;;;;43.65;38.88;;;;;;;9.90;100.00;99894.75;5011454;28;20505;-83
2022/03/31 03:32:15;;;;;;;54.35;49.83;;;;;;;10.00;100.00;99888.91;5009275;28;20077;-83
2022/03/31 03:34:42;;;;;;;51.05;45.90;;;;;;;10.14;100.00;99890.38;5005835;28;20099;-84
2022/03/31 03:37:09;;;;;;;46.47;40.53;;;;;;;10.18;100.00;99886.25;5006085;28;20567;-84
2022/03/31 03:39:37;;;;;;;48.97;44.67;;;;;;;10.31;100.00;99883.44;5006710;28;20049;-83
2022/03/31 03:42:05;;;;;;;54.55;49.13;;;;;;;10.19;100.00;99890.50;5007251;28;20057;-84
2022/03/31 03:44:31;;;;;;;54.42;50.00;;;;;;;10.23;100.00;99878.44;5006190;28;20473;-84
2022/03/31 03:46:58;;;;;;;49.35;44.67;;;;;;;10.30;100.00;99883.69;5009281;28;20058;-84
2022/03/31 03:49:25;;;;;;;57.13;51.88;;;;;;;10.28;100.00;99878.56;5005830;28;20042;-83
2022/03/31 03:51:51;;;;;;;53.80;49.05;;;;;;;10.29;100.00;99885.53;5004193;28;20136;-84
2022/03/31 03:54:18;;;;;;;53.05;48.28;;;;;;;10.33;100.00;99883.22;5004609;28;20054;-84
2022/03/31 03:56:46;;;;;;;53.20;48.33;;;;;;;10.22;100.00;99879.44;5006959;28;20046;-84
2022/03/31 03:59:13;;;;;;;49.03;44.13;;;;;;;10.09;100.00;99883.06;5007519;28;20058;-83
2022/03/31 04:01:40;;;;;;;49.28;44.22;;;;;;;10.11;100.00;99890.03;5000168;28;20062;-82
2022/03/31 04:04:07;;;;;;;48.72;43.78;;;;;;;10.44;100.00;99882.47;5005204;28;20057;-84
2022/03/31 04:06:34;;;;;;;55.00;49.80;;;;;;;10.64;100.00;99876.06;5012221;28;20092;-84
2022/03/31 04:09:00;;;;;;;50.90;46.53;;;;;;;10.76;100.00;99885.69;5012853;28;20143;-84
2022/03/31 04:11:27;;;;;;;58.72;41.83;;;;;;;10.83;100.00;99879.44;5010051;28;20568;-84
2022/03/31 04:13:55;;;;;;;83.35;51.90;;;;;;;10.92;100.00;99875.44;5007720;28;20100;-84
2022/03/31 04:16:22;;;;;;;57.92;44.03;;;;;;;10.96;100.00;99881.91;5010602;28;20053;-84
2022/03/31 04:18:49;;;;;;;109.78;61.13;;;;;;;11.09;100.00;99873.72;5010988;28;20046;-84
2022/03/31 04:21:16;;;;;;;150.77;73.50;;;;;;;11.10;100.00;99883.31;5003329;28;20495;-83
2022/03/31 04:23:42;;;;;;;58.35;47.95;;;;;;;11.09;100.00;99871.06;5008818;28;20457;-83
2022/03/31 04:26:09;;;;;;;62.10;45.22;;;;;;;11.12;100.00;99861.84;5007325;28;20136;-83
2022/03/31 04:28:36;;;;;;;68.00;47.33;;;;;;;11.14;100.00;99862.41;5007191;28;20139;-84
2022/03/31 04:31:04;;;;;;;69.75;47.85;;;;;;;11.04;100.00;99864.81;5001800;28;20050;-83
2022/03/31 04:33:31;;;;;;;126.88;68.97;;;;;;;11.05;100.00;99864.59;4995190;28;20514;-84
2022/03/31 04:35:58;;;;;;;64.13;49.08;;;;;;;11.01;100.00;99866.09;5004352;28;20053;-84
2022/03/31 04:38:25;;;;;;;92.25;57.28;;;;;;;11.20;100.00;99858.84;5005706;28;20108;-83
2022/03/31 04:40:51;;;;;;;39.30;36.05;;;;;;;11.18;100.00;99867.03;5004921;28;20053;-83
2022/03/31 04:43:18;;;;;;;42.28;35.35;;;;;;;11.21;100.00;99857.78;5009595;28;20050;-83
2022/03/31 04:45:45;;;;;;;37.45;33.88;;;;;;;11.14;100.00;99854.44;5011810;28;20045;-83
2022/03/31 04:48:13;;;;;;;38.22;34.38;;;;;;;11.14;100.00;99846.47;5012778;28;20496;-84
2022/03/31 04:50:40;;;;;;;48.15;38.42;;;;;;;11.26;100.00;99834.00;5011796;28;20049;-84
2022/03/31 04:53:07;;;;;;;59.97;45.78;;;;;;;11.27;100.00;99832.16;5011317;28;20390;-84
2022/03/31 04:55:34;;;;;;;49.15;44.10;;;;;;;11.27;100.00;99842.78;5007368;28;20113;-83
2022/03/31 04:58:01;;;;;;;47.22;39.97;;;;;;;11.15;100.00;99840.91;5000290;28;20050;-85
2022/03/31 05:00:28;;;;;;;52.03;42.05;;;;;;;11.24;100.00;99847.50;5011276;28;20071;-83
2022/03/31 05:02:55;;;;;;;67.50;47.67;;;;;;;11.49;100.00;99848.31;5006203;28;20501;-83
2022/03/31 05:05:24;;;;;;;68.60;51.80;;;;;;;11.57;100.00;99834.66;4977257;28;20071;-82
2022/03/31 05:10:47;;;;;;;53.38;39.53;;;;;;;11.65;100.00;99840.44;4996522;28;20058;-83
2022/03/31 05:13:13;;;;;;;48.85;37.55;;;;;;;11.73;100.00;99846.44;5001822;28;20513;-84
2022/03/31 05:15:40;;;;;;;45.20;36.28;;;;;;;11.68;100.00;99839.97;4992527;28;20073;-84
2022/03/31 05:18:07;;;;;;;41.47;37.03;;;;;;;11.83;100.00;99854.59;5008241;28;20050;-84
2022/03/31 05:20:35;;;;;;;44.75;40.03;;;;;;;11.89;100.00;99845.72;5003533;28;20476;-83
2022/03/31 05:23:17;;;;;;;44.85;40.45;;;;;;;11.97;100.00;99832.03;5139239;27;1306124;-80
2022/03/31 05:25:44;;;;;;;44.28;40.17;;;;;;;12.14;100.00;99846.22;5165126;27;20106;-82
2022/03/31 05:28:11;;;;;;;45.15;40.80;;;;;;;12.24;100.00;99840.28;5161942;27;20137;-79
2022/03/31 05:30:38;;;;;;;40.85;37.30;;;;;;;12.33;100.00;99838.84;5157430;27;20099;-82
2022/03/31 05:33:07;;;;;;;39.03;35.53;;;;;;;12.45;100.00;99832.66;5165902;27;20046;-81
2022/03/31 05:35:34;;;;;;;40.60;36.67;;;;;;;12.53;100.00;99826.97;5165469;27;20473;-80
2022/03/31 05:38:00;;;;;;;43.85;38.28;;;;;;;12.57;100.00;99828.09;5162948;27;20038;-80
2022/03/31 05:40:29;;;;;;;40.58;37.00;;;;;;;12.65;100.00;99816.22;5163712;27;20047;-80
2022/03/31 05:42:56;;;;;;;403.48;113.28;;;;;;;12.74;100.00;99825.44;5161551;27;20039;-80
2022/03/31 05:45:25;;;;;;;1585.97;537.30;;;;;;;12.86;100.00;99828.00;5172304;27;20129;-80
2022/03/31 05:47:52;;;;;;;97.38;51.70;;;;;;;12.83;100.00;99838.13;5163933;27;20103;-80
2022/03/31 05:50:19;;;;;;;86.93;54.33;;;;;;;12.95;100.00;99824.72;5162080;27;20086;-82
2022/03/31 05:52:46;;;;;;;40.22;36.35;;;;;;;13.05;100.00;99824.06;5161215;27;20046;-82
2022/03/31 05:55:16;;;;;;;41.90;38.08;;;;;;;13.14;100.00;99819.13;5160614;27;20102;-81
2022/03/31 05:57:45;;;;;;;37.97;34.95;;;;;;;13.21;100.00;99819.75;5165751;27;20493;-80
2022/03/31 06:00:16;;;;;;;126.10;65.90;;;;;;;13.26;100.00;99822.53;5171401;27;20054;-80
2022/03/31 06:02:43;;;;;;;311.73;129.38;;;;;;;13.46;100.00;99828.16;5166990;27;20038;-80
2022/03/31 06:05:11;;;;;;;244.95;107.05;;;;;;;13.58;100.00;99816.56;5164560;27;20062;-81
2022/03/31 06:07:38;;;;;;;43.50;39.78;;;;;;;13.61;100.00;99819.53;5162452;27;20047;-80
2022/03/31 06:10:06;;;;;;;552.05;249.73;;;;;;;13.77;100.00;99817.03;5162210;27;20042;-80
2022/03/31 06:12:34;;;;;;;119.82;69.85;;;;;;;13.78;100.00;99816.81;5161248;27;20046;-80
2022/03/31 06:15:02;;;;;;;70.72;52.03;;;;;;;13.90;100.00;99822.81;5165256;27;20082;-81
2022/03/31 06:17:29;;;;;;;74.90;49.58;;;;;;;14.00;100.00;99827.47;5164127;27;20042;-80
2022/03/31 06:19:56;;;;;;;173.82;88.88;;;;;;;14.07;100.00;99827.28;5164594;27;20043;-80
2022/03/31 06:22:22;;;;;;;63.78;52.45;;;;;;;14.19;100.00;99836.78;5163961;27;20108;-80
2022/03/31 06:24:49;;;;;;;155.68;98.35;;;;;;;14.38;95.68;99828.41;5159300;27;20057;-81
2022/03/31 06:27:16;;;;;;;197.20;110.75;;;;;;;14.46;94.94;99835.16;5160166;27;20110;-81
2022/03/31 06:29:45;;;;;;;53.33;47.78;;;;;;;14.62;92.93;99835.09;5156099;27;20557;-80
2022/03/31 06:32:13;;;;;;;106.35;73.18;;;;;;;14.71;92.54;99834.63;5163284;27;20043;-80
2022/03/31 06:34:40;;;;;;;59.28;52.78;;;;;;;14.72;91.55;99838.91;5153957;27;20103;-80
2022/03/31 06:37:07;;;;;;;63.45;53.75;;;;;;;14.90;91.02;99838.53;5154563;27;20042;-81
2022/03/31 06:39:34;;;;;;;71.43;54.83;;;;;;;15.01;90.92;99842.09;5144843;27;20096;-81
2022/03/31 06:42:01;;;;;;;61.88;56.42;;;;;;;15.14;91.98;99841.63;5150702;27;20100;-80
2022/03/31 06:44:28;;;;;;;50.30;45.80;;;;;;;15.39;90.51;99832.97;5154316;27;20078;-80
2022/03/31 06:46:54;;;;;;;45.80;42.00;;;;;;;15.84;86.17;99842.31;5145904;27;20054;-80
2022/03/31 06:49:23;;;;;;;44.83;41.00;;;;;;;16.28;88.41;99841.94;5145596;27;20486;-81
2022/03/31 06:51:50;;;;;;;43.42;39.97;;;;;;;16.55;83.41;99851.59;5143694;27;20047;-80
2022/03/31 06:54:18;;;;;;;41.65;38.28;;;;;;;16.72;79.99;99844.13;5154192;27;20047;-81
2022/03/31 06:56:46;;;;;;;42.00;38.47;;;;;;;16.75;78.64;99858.88;5149371;27;20551;-79
2022/03/31 06:59:13;;;;;;;41.03;37.72;;;;;;;16.71;77.69;99850.56;5145531;27;20051;-80
2022/03/31 07:01:39;;;;;;;43.08;38.92;;;;;;;16.78;75.63;99859.16;5142310;27;20137;-80
2022/03/31 07:04:07;;;;;;;40.53;37.15;;;;;;;16.78;74.88;99859.16;5151346;27;20043;-81
2022/03/31 07:06:35;;;;;;;40.83;37.15;;;;;;;16.64;76.44;99860.72;5149239;27;20480;-80
2022/03/31 07:09:02;;;;;;;39.60;35.95;;;;;;;16.71;74.73;99866.66;5145655;27;20460;-81
2022/03/31 07:11:29;;;;;;;50.47;46.40;;;;;;;16.78;73.10;99869.09;5147461;27;20127;-80
2022/03/31 07:13:56;;;;;;;46.53;42.80;;;;;;;16.86;70.54;99877.41;5141168;27;20518;-80
2022/03/31 07:16:23;;;;;;;42.92;39.22;;;;;;;16.96;70.06;99883.84;5138179;27;20046;-80
2022/03/31 07:18:50;;;;;;;42.75;38.70;;;;;;;16.94;69.42;99884.09;5148656;27;20051;-81
2022/03/31 07:21:17;;;;;;;38.85;35.88;;;;;;;17.00;68.45;99877.66;5145758;27;20046;-80
2022/03/31 07:23:48;;;;;;;41.90;38.35;;;;;;;17.15;68.38;99871.50;5153180;27;20130;-81
2022/03/31 07:26:16;;;;;;;37.50;34.33;;;;;;;17.15;68.48;99869.59;5146639;27;20038;-80
2022/03/31 07:28:43;;;;;;;42.05;38.22;;;;;;;17.30;67.89;99865.31;5150095;27;20047;-80
2022/03/31 07:31:10;;;;;;;41.83;38.70;;;;;;;17.50;67.77;99870.66;5151907;27;20063;-81
2022/03/31 07:33:37;;;;;;;39.92;36.50;;;;;;;17.50;67.08;99870.66;5149551;27;20054;-80
2022/03/31 07:36:04;;;;;;;41.95;38.40;;;;;;;17.47;66.93;99865.03;5148881;27;20092;-80
2022/03/31 07:38:31;;;;;;;39.40;36.00;;;;;;;17.57;66.88;99860.41;5147282;27;20042;-80
2022/03/31 07:40:59;;;;;;;38.38;34.97;;;;;;;17.56;66.41;99858.03;5141513;27;20047;-81
2022/03/31 07:43:27;;;;;;;39.90;35.97;;;;;;;17.61;65.87;99852.66;5149203;27;20070;-81
2022/03/31 07:45:54;;;;;;;43.30;39.33;;;;;;;17.72;66.14;99864.94;5136237;27;20070;-81
2022/03/31 07:48:21;;;;;;;41.45;37.65;;;;;;;17.89;65.34;99867.34;5144687;27;20496;-80
2022/03/31 07:50:48;;;;;;;39.20;35.83;;;;;;;17.80;65.14;99856.34;5146540;27;20043;-81
2022/03/31 07:53:17;;;;;;;39.92;36.42;;;;;;;18.20;64.40;99867.19;5142666;27;20039;-80
2022/03/31 07:55:44;;;;;;;39.10;35.47;;;;;;;18.32;63.76;99867.66;5148748;27;20047;-79
2022/03/31 07:58:13;;;;;;;43.53;40.15;;;;;;;18.61;63.85;99866.94;5139951;27;20110;-80
2022/03/31 08:00:39;;;;;;;42.90;38.78;;;;;;;18.61;63.82;99869.63;5153965;27;20043;-80
2022/03/31 08:03:06;;;;;;;45.53;41.58;;;;;;;18.76;62.65;99870.38;5146222;27;20055;-81
2022/03/31 08:05:37;;;;;;;41.05;37.50;;;;;;;18.75;63.40;99867.94;5146268;27;20582;-81
2022/03/31 08:08:04;;;;;;;44.38;40.67;;;;;;;18.93;62.38;99875.34;5146083;27;20494;-81
2022/03/31 08:10:31;;;;;;;45.35;41.70;;;;;;;18.91;60.87;99872.16;5137509;27;20051;-81
2022/03/31 08:12:58;;;;;;;42.15;38.97;;;;;;;19.26;61.15;99870.22;5146511;27;20070;-81
2022/03/31 08:15:26;;;;;;;44.10;40.53;;;;;;;19.39;60.26;99857.97;5146180;27;20042;-81
2022/03/31 08:17:54;;;;;;;45.40;40.75;;;;;;;19.43;58.70;99854.44;5145059;27;20083;-81
2022/03/31 08:20:21;;;;;;;41.63;37.85;;;;;;;19.62;59.21;99856.38;5146353;27;20061;-80
2022/03/31 08:22:48;;;;;;;39.72;35.38;;;;;;;19.72;60.03;99853.59;5139972;27;20074;-80
2022/03/31 08:25:15;;;;;;;42.35;38.63;;;;;;;19.79;58.02;99843.28;5146241;27;20054;-80
2022/03/31 08:27:42;;;;;;;42.38;38.97;;;;;;;20.17;57.79;99835.22;5145216;27;20062;-81
2022/03/31 08:30:13;;;;;;;42.40;38.55;;;;;;;20.06;55.58;99841.84;5139818;27;20523;-81
2022/03/31 08:32:43;;;;;;;42.50;38.90;;;;;;;20.20;56.64;99841.94;5145968;27;20055;-79
2022/03/31 08:35:11;;;;;;;44.10;40.13;;;;;;;20.16;55.94;99840.94;5144127;27;20523;-80
2022/03/31 08:37:39;;;;;;;41.97;37.78;;;;;;;20.40;56.00;99840.88;5142220;27;20103;-84
2022/03/31 08:40:08;;;;;;;44.40;39.92;;;;;;;20.11;56.65;99841.78;5144870;27;20474;-81
2022/03/31 08:42:35;;;;;;;45.55;41.25;;;;;;;20.22;56.20;99831.69;5142169;27;20106;-80
2022/03/31 08:45:02;;;;;;;46.05;41.22;;;;;;;20.09;55.52;99831.31;5142587;27;20444;-81
2022/03/31 08:47:29;;;;;;;42.28;38.78;;;;;;;20.18;55.92;99831.44;5144242;27;20043;-81
2022/03/31 08:49:58;;;;;;;41.53;37.80;;;;;;;20.28;57.00;99830.50;5143600;27;20046;-80
2022/03/31 08:52:25;;;;;;;40.80;37.53;;;;;;;20.18;57.43;99833.34;5142167;27;20047;-82
2022/03/31 08:54:52;;;;;;;43.00;39.05;;;;;;;20.06;56.51;99831.06;5143047;27;20498;-81
2022/03/31 08:57:19;;;;;;;40.47;36.92;;;;;;;19.88;56.33;99836.16;5143220;27;20081;-79
2022/03/31 08:59:48;;;;;;;41.47;37.70;;;;;;;19.76;56.39;99826.88;5142570;27;20143;-81
2022/03/31 09:02:25;;;;;;;43.00;38.85;;;;;;;19.72;56.54;99815.06;5141444;27;20103;-81
2022/03/31 09:05:05;;;;;;;41.42;37.35;;;;;;;19.69;56.27;99816.44;5140473;27;20071;-81
2022/03/31 09:07:32;;;;;;;40.30;36.83;;;;;;;19.61;56.15;99819.78;5148727;27;20099;-81
2022/03/31 09:09:58;;;;;;;44.17;40.50;;;;;;;19.65;56.43;99810.03;5143655;27;20456;-81
2022/03/31 09:12:27;;;;;;;43.92;39.58;;;;;;;19.68;56.64;99820.25;5144414;27;20471;-81
2022/03/31 09:14:55;;;;;;;43.17;39.13;;;;;;;19.65;56.44;99823.50;5147161;27;20111;-82
2022/03/31 09:17:21;;;;;;;44.35;40.10;;;;;;;19.37;58.35;99823.25;5147327;27;20046;-81
2022/03/31 09:19:58;;;;;;;44.20;40.67;;;;;;;19.75;57.61;99822.59;5142966;27;20095;-82
2022/03/31 09:22:26;;;;;;;47.47;43.13;;;;;;;19.68;58.33;99839.09;5143061;27;20042;-79
2022/03/31 09:25:01;;;;;;;42.35;38.55;;;;;;;19.97;57.22;99833.63;5144095;27;20564;-79
2022/03/31 09:27:27;;;;;;;44.17;40.33;;;;;;;20.03;56.75;99834.34;5137258;27;20078;-80
2022/03/31 09:30:05;;;;;;;43.53;39.35;;;;;;;20.61;56.05;99811.72;5140939;27;20047;-80
2022/03/31 09:32:32;;;;;;;43.65;39.33;;;;;;;21.21;55.88;99809.03;5144747;27;20039;-80
2022/03/31 09:35:06;;;;;;;41.13;37.20;;;;;;;21.46;54.32;99810.50;5142469;27;20574;-80
2022/03/31 09:37:34;;;;;;;44.28;39.72;;;;;;;21.18;52.94;99809.63;5140773;27;20042;-79
2022/03/31 09:40:01;;;;;;;42.28;38.17;;;;;;;20.95;53.79;99811.41;5150852;27;20047;-79
2022/03/31 09:42:28;;;;;;;45.63;41.10;;;;;;;20.95;54.07;99801.41;5148039;27;20043;-82
2022/03/31 09:44:59;;;;;;;41.30;37.58;;;;;;;20.61;54.86;99801.72;5151176;27;20129;-80
2022/03/31 09:47:28;;;;;;;40.60;36.70;;;;;;;20.57;54.51;99806.09;5146670;27;20043;-80
2022/03/31 09:49:55;;;;;;;46.60;42.53;;;;;;;20.38;55.85;99799.91;5144429;27;20411;-79
2022/03/31 09:52:23;;;;;;;43.58;39.60;;;;;;;20.28;56.18;99798.16;5142531;27;20108;-82
2022/03/31 09:54:52;;;;;;;42.03;38.38;;;;;;;19.95;56.84;99795.38;5150139;27;20046;-82
2022/03/31 09:57:22;;;;;;;43.25;36.13;;;;;;;20.26;56.05;99805.72;5142694;27;20107;-81
2022/03/31 09:59:51;;;;;;;40.28;36.03;;;;;;;20.23;55.49;99799.03;5153444;27;20091;-80
2022/03/31 10:02:19;;;;;;;42.28;38.50;;;;;;;20.19;55.87;99798.00;5149774;27;20046;-81
2022/03/31 10:04:47;;;;;;;49.05;44.50;;;;;;;20.16;55.46;99789.72;5148060;27;20047;-81
2022/03/31 10:07:14;;;;;;;46.10;41.40;;;;;;;20.09;55.19;99793.56;5138062;27;20134;-81
2022/03/31 10:09:44;;;;;;;45.03;40.65;;;;;;;20.12;55.90;99798.38;5146335;27;20142;-80
2022/03/31 10:12:19;;;;;;;46.30;41.97;;;;;;;20.10;55.77;99797.06;5147698;27;20078;-80
2022/03/31 10:14:52;;;;;;;43.25;39.97;;;;;;;20.07;56.72;99795.75;5144181;27;20043;-79
2022/03/31 10:17:25;;;;;;;44.72;40.72;;;;;;;20.08;55.82;99785.75;5149639;27;20054;-81
2022/03/31 10:19:53;;;;;;;44.35;40.70;;;;;;;20.26;56.17;99773.38;5144141;27;20122;-80
2022/03/31 10:25:04;;;;;;;43.97;39.63;;;;;;;21.13;56.08;99767.34;5121932;27;20493;-82
2022/03/31 10:27:34;;;;;;;43.50;39.63;;;;;;;21.40;54.87;99771.19;5143584;27;20051;-79
2022/03/31 10:30:12;;;;;;;43.00;39.13;;;;;;;21.42;53.57;99755.47;5156504;27;20042;-81
2022/03/31 10:32:51;;;;;;;45.50;41.10;;;;;;;21.22;54.33;99756.66;5149864;27;20557;-79
2022/03/31 10:35:22;;;;;;;44.03;39.53;;;;;;;20.79;54.77;99756.91;5149591;27;20047;-81
2022/03/31 10:37:49;;;;;;;39.35;36.17;;;;;;;20.94;55.69;99759.34;5142179;27;20481;-81
2022/03/31 10:40:29;;;;;;;41.58;37.58;;;;;;;20.66;55.85;99768.44;5145580;27;20161;-80
2022/03/31 10:42:57;;;;;;;45.85;40.80;;;;;;;20.12;55.21;99767.91;5147634;27;20641;-80
2022/03/31 10:45:35;;;;;;;40.88;37.22;;;;;;;20.20;56.36;99761.88;5158385;27;20476;-79
2022/03/31 10:48:14;;;;;;;41.33;36.83;;;;;;;20.34;57.13;99761.94;5144233;27;20457;-80
2022/03/31 10:50:41;;;;;;;43.28;38.88;;;;;;;20.29;56.72;99745.81;5138812;27;20107;-80
2022/03/31 10:53:08;;;;;;;45.53;41.97;;;;;;;20.50;56.97;99738.22;5146154;27;20058;-79
2022/03/31 10:55:37;;;;;;;40.92;37.22;;;;;;;20.55;56.10;99736.25;5142711;27;20055;-80
2022/03/31 10:58:06;;;;;;;41.78;37.97;;;;;;;20.72;55.86;99735.69;5150185;27;20106;-80
2022/03/31 11:00:33;;;;;;;42.00;37.65;;;;;;;20.79;55.36;99738.81;5154433;27;20475;-83
2022/03/31 11:03:00;;;;;;;40.47;36.67;;;;;;;20.97;55.45;99736.34;5132018;27;20043;-80
2022/03/31 11:05:28;;;;;;;39.75;35.58;;;;;;;21.00;55.23;99722.25;5142800;27;20492;-80
2022/03/31 11:08:03;;;;;;;40.50;36.15;;;;;;;21.02;55.44;99714.63;5146531;27;20051;-81
2022/03/31 11:10:40;;;;;;;44.08;39.75;;;;;;;21.06;54.22;99710.25;5138444;27;20482;-80
2022/03/31 11:13:09;;;;;;;43.03;39.20;;;;;;;20.96;54.64;99697.72;5147141;27;20076;-81
2022/03/31 11:15:36;;;;;;;46.13;42.00;;;;;;;20.89;54.82;99701.94;5151797;27;20110;-81
2022/03/31 11:18:03;;;;;;;46.97;42.60;;;;;;;21.03;55.51;99703.56;5145883;27;20039;-81
2022/03/31 11:20:30;;;;;;;43.03;38.63;;;;;;;20.73;54.78;99702.22;5149425;27;20445;-80
2022/03/31 11:29:57;;;;;;;38.28;35.08;;;;;;;21.00;54.18;99697.97;5048221;28;20049;-79